createdAt,value
2022-09-10T00:01:19.419Z,6.97
2022-09-10T00:03:48.689Z,9.48
2022-09-10T00:06:18.411Z,7.20
2022-09-10T00:08:46.854Z,7.82
2022-09-10T00:11:15.622Z,11.95
2022-09-10T00:13:44.143Z,8.10
2022-09-10T00:16:15.268Z,6.60
2022-09-10T00:18:43.455Z,5.55
2022-09-10T00:21:13.684Z,7.85
2022-09-10T00:23:41.549Z,7.55
2022-09-10T00:26:14.791Z,6.88
2022-09-10T00:28:43.454Z,8.07
2022-09-10T00:31:14.263Z,10.07
2022-09-10T00:33:42.734Z,8.32
2022-09-10T00:36:19.286Z,5.70
2022-09-10T00:38:47.739Z,11.45
2022-09-10T00:41:16.450Z,5.65
2022-09-10T00:43:50.103Z,8.68
2022-09-10T00:46:28.490Z,7.20
2022-09-10T00:48:58.982Z,7.97
2022-09-10T00:51:30.014Z,7.88
2022-09-10T00:53:58.642Z,5.82
2022-09-10T00:56:27.133Z,7.43
2022-09-10T00:58:55.047Z,7.88
2022-09-10T01:01:24.420Z,8.82
2022-09-10T01:03:53.476Z,7.07
2022-09-10T01:06:21.362Z,12.85
2022-09-10T01:08:49.192Z,7.03
2022-09-10T01:11:37.641Z,8.05
2022-09-10T01:14:27.807Z,11.65
2022-09-10T01:17:07.580Z,7.25
2022-09-10T01:20:17.819Z,10.00
2022-09-10T01:23:12.523Z,7.05
2022-09-10T01:25:50.162Z,8.55
2022-09-10T01:28:26.884Z,8.25
2022-09-10T01:31:01.895Z,9.13
2022-09-10T01:33:35.405Z,7.78
2022-09-10T01:36:09.496Z,11.52
2022-09-10T01:38:39.616Z,8.73
2022-09-10T01:41:07.728Z,8.88
2022-09-10T01:43:37.503Z,11.18
2022-09-10T01:46:21.687Z,13.15
2022-09-10T01:49:06.924Z,11.73
2022-09-10T01:51:49.295Z,12.50
2022-09-10T01:54:30.054Z,12.23
2022-09-10T01:57:07.653Z,11.23
2022-09-10T01:59:44.664Z,12.75
2022-09-10T02:02:18.462Z,11.55
2022-09-10T02:04:47.917Z,11.32
2022-09-10T02:07:16.916Z,11.18
2022-09-10T02:09:45.344Z,12.18
2022-09-10T02:12:21.371Z,11.50
2022-09-10T02:14:51.976Z,11.75
2022-09-10T02:17:21.518Z,14.25
2022-09-10T02:19:52.535Z,12.75
2022-09-10T02:22:23.871Z,16.83
2022-09-10T02:24:52.367Z,11.93
2022-09-10T02:27:20.669Z,16.33
2022-09-10T02:29:50.483Z,13.68
2022-09-10T02:32:18.412Z,12.75
2022-09-10T02:34:46.482Z,13.63
2022-09-10T02:37:16.835Z,12.93
2022-09-10T02:39:45.422Z,13.10
2022-09-10T02:42:18.098Z,14.10
2022-09-10T02:44:47.911Z,14.90
2022-09-10T02:47:17.832Z,15.77
2022-09-10T02:49:46.150Z,14.00
2022-09-10T02:52:14.384Z,17.50
2022-09-10T02:54:42.357Z,13.85
2022-09-10T02:57:11.848Z,13.20
2022-09-10T02:59:39.784Z,14.52
2022-09-10T03:02:07.833Z,16.13
2022-09-10T03:04:37.260Z,13.77
2022-09-10T03:07:05.647Z,15.80
2022-09-10T03:09:33.646Z,13.60
2022-09-10T03:12:01.727Z,15.23
2022-09-10T03:14:30.377Z,16.38
2022-09-10T03:16:58.340Z,15.45
2022-09-10T03:19:26.687Z,15.63
2022-09-10T03:21:55.930Z,17.55
2022-09-10T03:24:25.253Z,15.82
2022-09-10T03:26:53.227Z,15.40
2022-09-10T03:29:22.959Z,17.20
2022-09-10T03:31:51.601Z,16.48
2022-09-10T03:34:20.480Z,15.52
2022-09-10T03:36:51.511Z,15.82
2022-09-10T03:39:21.359Z,18.98
2022-09-10T03:41:49.347Z,16.73
2022-09-10T03:44:17.265Z,16.13
2022-09-10T03:46:45.568Z,16.15
2022-09-10T03:49:13.660Z,15.68
2022-09-10T03:51:41.479Z,16.85
2022-09-10T03:54:09.339Z,16.05
2022-09-10T03:56:39.021Z,15.75
2022-09-10T03:59:06.816Z,16.75
2022-09-10T04:01:34.586Z,16.10
2022-09-10T04:04:03.021Z,15.95
2022-09-10T04:06:32.901Z,15.48
2022-09-10T04:09:01.173Z,16.85
2022-09-10T04:11:29.116Z,17.60
2022-09-10T04:13:58.239Z,15.43
2022-09-10T04:16:27.516Z,16.35
2022-09-10T04:18:55.389Z,15.32
2022-09-10T04:21:23.137Z,15.10
2022-09-10T04:23:54.979Z,17.00
2022-09-10T04:26:23.450Z,16.30
2022-09-10T04:28:51.267Z,15.85
2022-09-10T04:31:20.928Z,15.85
2022-09-10T04:33:48.935Z,14.57
2022-09-10T04:36:17.175Z,15.98
2022-09-10T04:38:45.016Z,15.15
2022-09-10T04:41:15.377Z,14.80
2022-09-10T04:43:43.521Z,16.63
2022-09-10T04:46:11.457Z,16.00
2022-09-10T04:48:40.796Z,14.73
2022-09-10T04:51:17.230Z,14.07
2022-09-10T04:53:46.228Z,14.55
2022-09-10T04:56:14.356Z,13.63
2022-09-10T04:58:42.595Z,14.13
2022-09-10T05:01:11.367Z,14.13
2022-09-10T05:03:40.765Z,14.15
2022-09-10T05:06:08.685Z,15.73
2022-09-10T05:08:36.595Z,15.90
2022-09-10T05:11:04.515Z,14.80
2022-09-10T05:13:32.288Z,16.00
2022-09-10T05:16:00.376Z,14.23
2022-09-10T05:18:28.172Z,14.43
2022-09-10T05:20:57.419Z,14.27
2022-09-10T05:23:25.597Z,13.85
2022-09-10T05:25:53.959Z,14.73
2022-09-10T05:28:22.630Z,12.82
2022-09-10T05:30:51.896Z,13.30
2022-09-10T05:33:19.927Z,14.40
2022-09-10T05:35:51.552Z,14.38
2022-09-10T05:38:20.901Z,13.38
2022-09-10T05:40:48.924Z,13.68
2022-09-10T05:43:16.821Z,13.70
2022-09-10T05:45:44.763Z,14.23
2022-09-10T05:48:13.459Z,14.70
2022-09-10T05:50:41.230Z,14.75
2022-09-10T05:53:09.980Z,12.88
2022-09-10T05:55:39.504Z,13.95
2022-09-10T05:58:07.315Z,12.23
2022-09-10T06:00:36.351Z,12.70
2022-09-10T06:03:05.326Z,11.52
2022-09-10T06:05:33.280Z,12.68
2022-09-10T06:08:04.255Z,12.70
2022-09-10T06:10:35.163Z,14.65
2022-09-10T06:13:04.309Z,13.18
2022-09-10T06:15:33.049Z,14.25
2022-09-10T06:18:01.805Z,16.08
2022-09-10T06:20:29.818Z,15.45
2022-09-10T06:22:57.569Z,13.48
2022-09-10T06:25:25.348Z,15.80
2022-09-10T06:27:53.148Z,15.30
2022-09-10T06:30:22.379Z,16.63
2022-09-10T06:32:50.829Z,15.65
2022-09-10T06:35:18.571Z,15.85
2022-09-10T06:37:46.465Z,17.30
2022-09-10T06:40:14.323Z,18.67
2022-09-10T06:42:42.807Z,18.55
2022-09-10T06:45:11.490Z,18.80
2022-09-10T06:48:36.992Z,17.25
2022-09-10T06:50:28.630Z,15.85
2022-09-10T06:52:56.967Z,15.98
2022-09-10T06:55:24.861Z,16.60
2022-09-10T06:57:52.673Z,16.42
2022-09-10T07:00:21.083Z,16.23
2022-09-10T07:02:50.607Z,17.75
2022-09-10T07:05:18.549Z,16.00
2022-09-10T07:07:46.743Z,15.63
2022-09-10T07:10:14.607Z,16.10
2022-09-10T07:12:42.677Z,13.32
2022-09-10T07:15:11.967Z,16.20
2022-09-10T07:17:39.726Z,16.58
2022-09-10T07:20:09.768Z,15.30
2022-09-10T07:22:38.302Z,19.15
2022-09-10T07:25:07.503Z,15.98
2022-09-10T07:27:35.522Z,19.07
2022-09-10T07:30:03.592Z,15.30
2022-09-10T07:32:33.554Z,14.55
2022-09-10T07:35:01.579Z,14.32
2022-09-10T07:37:30.883Z,13.75
2022-09-10T07:39:58.941Z,13.65
2022-09-10T07:42:26.975Z,13.48
2022-09-10T07:44:54.939Z,15.43
2022-09-10T07:47:23.136Z,15.35
2022-09-10T07:49:52.622Z,16.20
2022-09-10T07:52:20.487Z,14.20
2022-09-10T07:54:49.898Z,13.27
2022-09-10T07:57:17.982Z,16.52
2022-09-10T07:59:45.985Z,14.02
2022-09-10T08:02:16.020Z,13.73
2022-09-10T08:04:44.019Z,13.70
2022-09-10T08:07:12.061Z,14.68
2022-09-10T08:09:40.019Z,14.40
2022-09-10T08:12:09.517Z,13.32
2022-09-10T08:14:37.977Z,14.85
2022-09-10T08:17:06.683Z,13.63
2022-09-10T08:19:34.803Z,12.43
2022-09-10T08:22:03.539Z,12.20
2022-09-10T08:24:31.885Z,12.10
2022-09-10T08:26:59.875Z,11.40
2022-09-10T08:29:30.013Z,11.75
2022-09-10T08:31:58.867Z,15.18
2022-09-10T08:34:27.475Z,9.90
2022-09-10T08:36:55.554Z,10.10
2022-09-10T08:39:24.087Z,12.00
2022-09-10T08:41:56.304Z,9.25
2022-09-10T08:44:33.788Z,9.27
2022-09-10T08:47:07.478Z,9.52
2022-09-10T08:49:40.420Z,8.25
2022-09-10T08:52:17.353Z,9.82
2022-09-10T08:54:52.235Z,9.93
2022-09-10T08:57:25.366Z,9.57
2022-09-10T08:59:56.624Z,8.90
2022-09-10T09:02:48.266Z,8.30
2022-09-10T09:05:19.882Z,7.93
2022-09-10T09:07:49.272Z,9.35
2022-09-10T09:10:30.132Z,7.65
2022-09-10T09:13:26.448Z,13.82
2022-09-10T09:16:06.642Z,9.88
2022-09-10T09:18:48.803Z,8.23
2022-09-10T09:21:19.256Z,8.88
2022-09-10T09:24:12.084Z,10.70
2022-09-10T09:26:42.817Z,9.75
2022-09-10T09:29:17.971Z,11.65
2022-09-10T09:31:51.044Z,11.48
2022-09-10T09:34:23.639Z,10.88
2022-09-10T09:36:55.994Z,11.48
2022-09-10T09:39:29.750Z,11.40
2022-09-10T09:42:05.766Z,8.93
2022-09-10T09:44:39.571Z,7.97
2022-09-10T09:47:08.953Z,7.32
2022-09-10T09:49:36.829Z,8.90
2022-09-10T09:52:18.385Z,12.82
2022-09-10T09:55:13.838Z,12.45
2022-09-10T09:57:38.841Z,11.82
2022-09-10T10:00:36.228Z,11.70
2022-09-10T10:03:16.310Z,13.15
2022-09-10T10:05:44.118Z,12.30
2022-09-10T10:08:30.677Z,11.95
2022-09-10T10:10:59.138Z,12.30
2022-09-10T10:13:38.200Z,12.48
2022-09-10T10:16:17.230Z,12.32
2022-09-10T10:18:46.932Z,10.85
2022-09-10T10:21:18.107Z,12.13
2022-09-10T10:23:46.047Z,12.02
2022-09-10T10:26:30.279Z,11.50
2022-09-10T10:29:01.163Z,10.95
2022-09-10T10:31:42.929Z,10.15
2022-09-10T10:34:33.456Z,10.95
2022-09-10T10:37:09.427Z,10.05
2022-09-10T10:40:01.160Z,10.43
2022-09-10T10:42:33.078Z,9.55
2022-09-10T10:45:32.123Z,8.63
2022-09-10T10:48:10.144Z,7.93
2022-09-10T10:50:52.893Z,7.35
2022-09-10T10:53:48.453Z,8.10
2022-09-10T10:56:23.903Z,8.23
2022-09-10T10:59:04.314Z,10.35
2022-09-10T11:01:37.992Z,9.40
2022-09-10T11:04:22.731Z,9.57
2022-09-10T11:06:58.931Z,9.23
2022-09-10T11:09:31.168Z,9.68
2022-09-10T11:12:03.620Z,10.40
2022-09-10T11:14:37.399Z,10.32
2022-09-10T11:17:10.934Z,10.20
2022-09-10T11:19:43.951Z,9.82
2022-09-10T11:22:19.138Z,9.90
2022-09-10T11:24:51.166Z,10.27
2022-09-10T11:27:23.640Z,9.75
2022-09-10T11:29:57.847Z,9.32
2022-09-10T11:32:31.897Z,8.38
2022-09-10T11:35:06.954Z,8.70
2022-09-10T11:37:58.381Z,7.47
2022-09-10T11:40:32.113Z,3.70
2022-09-10T11:43:07.359Z,2.88
2022-09-10T11:45:42.655Z,2.40
2022-09-10T11:48:18.358Z,2.40
2022-09-10T11:50:51.343Z,2.63
2022-09-10T11:53:23.257Z,2.83
2022-09-10T11:56:23.005Z,5.78
2022-09-10T11:59:02.543Z,3.17
2022-09-10T12:01:51.859Z,2.72
2022-09-10T12:04:40.456Z,2.90
2022-09-10T12:07:21.026Z,3.85
2022-09-10T12:09:59.962Z,2.20
2022-09-10T12:12:34.486Z,4.07
2022-09-10T12:15:02.458Z,2.30
2022-09-10T12:17:33.996Z,2.90
2022-09-10T12:20:05.624Z,2.78
2022-09-10T12:22:36.951Z,3.10
2022-09-10T12:25:08.052Z,4.07
2022-09-10T12:27:47.436Z,2.88
2022-09-10T12:30:52.319Z,2.58
2022-09-10T12:34:08.274Z,2.20
2022-09-10T12:37:17.061Z,2.13
2022-09-10T12:39:45.387Z,1.85
2022-09-10T12:42:36.612Z,2.63
2022-09-10T12:45:04.752Z,2.85
2022-09-10T12:47:53.563Z,4.50
2022-09-10T12:50:32.046Z,2.78
2022-09-10T12:53:23.273Z,2.70
2022-09-10T12:56:02.060Z,2.95
2022-09-10T12:58:54.198Z,2.65
2022-09-10T13:01:40.450Z,2.22
2022-09-10T13:04:25.528Z,2.17
2022-09-10T13:06:58.279Z,2.33
2022-09-10T13:09:29.586Z,3.75
2022-09-10T13:12:03.931Z,2.78
2022-09-10T13:14:38.045Z,1.80
2022-09-10T13:17:06.993Z,2.58
2022-09-10T13:19:55.308Z,3.13
2022-09-10T13:23:04.232Z,1.95
2022-09-10T13:25:40.421Z,2.20
2022-09-10T13:28:46.329Z,3.83
2022-09-10T13:31:25.902Z,4.13
2022-09-10T13:34:15.190Z,2.80
2022-09-10T13:36:52.844Z,2.50
2022-09-10T13:39:47.578Z,2.70
2022-09-10T13:42:35.664Z,2.95
2022-09-10T13:45:29.932Z,3.05
2022-09-10T13:48:08.028Z,3.50
2022-09-10T13:50:41.513Z,3.63
2022-09-10T13:53:13.580Z,4.63
2022-09-10T13:55:50.493Z,2.97
2022-09-10T13:58:23.130Z,3.80
2022-09-10T14:00:56.112Z,6.95
2022-09-10T14:03:30.228Z,3.90
2022-09-10T14:06:01.521Z,3.20
2022-09-10T14:08:32.251Z,4.57
2022-09-10T14:11:02.464Z,3.20
2022-09-10T14:13:37.044Z,3.80
2022-09-10T14:16:09.285Z,4.55
2022-09-10T14:18:44.923Z,4.35
2022-09-10T14:21:14.828Z,3.75
2022-09-10T14:23:46.858Z,3.40
2022-09-10T14:26:23.124Z,5.28
2022-09-10T14:28:53.768Z,2.92
2022-09-10T14:31:29.060Z,3.00
2022-09-10T14:33:59.340Z,3.28
2022-09-10T14:36:35.058Z,3.20
2022-09-10T14:39:06.837Z,3.08
2022-09-10T14:41:36.648Z,3.78
2022-09-10T14:44:16.686Z,4.05
2022-09-10T14:46:50.296Z,3.22
2022-09-10T14:49:25.150Z,4.30
2022-09-10T14:51:52.974Z,3.20
2022-09-10T14:54:22.108Z,3.35
2022-09-10T14:56:50.288Z,3.33
2022-09-10T14:59:22.229Z,2.83
2022-09-10T15:01:51.402Z,2.83
2022-09-10T15:04:23.555Z,4.53
2022-09-10T15:06:53.912Z,4.43
2022-09-10T15:09:22.733Z,7.82
2022-09-10T15:11:55.511Z,3.28
2022-09-10T15:14:24.963Z,3.38
2022-09-10T15:16:54.020Z,4.35
2022-09-10T15:19:23.984Z,3.60
2022-09-10T15:21:51.926Z,3.08
2022-09-10T15:24:21.557Z,4.57
2022-09-10T15:26:50.767Z,2.80
2022-09-10T15:29:18.981Z,3.78
2022-09-10T15:31:47.066Z,3.33
2022-09-10T15:34:15.228Z,2.95
2022-09-10T15:36:44.803Z,3.80
2022-09-10T15:39:13.846Z,4.78
2022-09-10T15:41:43.888Z,3.15
2022-09-10T15:44:12.388Z,2.78
2022-09-10T15:46:42.070Z,3.28
2022-09-10T15:49:10.059Z,2.33
2022-09-10T15:51:37.938Z,3.00
2022-09-10T15:54:07.192Z,2.00
2022-09-10T15:56:36.555Z,2.63
2022-09-10T15:59:05.700Z,2.65
2022-09-10T16:01:36.243Z,2.40
2022-09-10T16:04:04.725Z,2.05
2022-09-10T16:06:34.552Z,2.05
2022-09-10T16:09:06.154Z,1.83
2022-09-10T16:11:37.114Z,1.65
2022-09-10T16:14:07.886Z,2.63
2022-09-10T16:16:37.073Z,2.72
2022-09-10T16:19:06.383Z,3.58
2022-09-10T16:21:37.288Z,4.35
2022-09-10T16:24:06.728Z,3.38
2022-09-10T16:26:37.745Z,3.72
2022-09-10T16:29:07.726Z,2.28
2022-09-10T16:31:37.294Z,3.20
2022-09-10T16:34:07.151Z,4.03
2022-09-10T16:36:36.920Z,2.22
2022-09-10T16:39:11.641Z,3.42
2022-09-10T16:41:42.244Z,2.13
2022-09-10T16:44:10.977Z,2.17
2022-09-10T16:46:39.141Z,3.10
2022-09-10T16:49:08.446Z,2.72
2022-09-10T16:51:36.871Z,3.88
2022-09-10T16:54:06.757Z,4.10
2022-09-10T16:56:36.793Z,4.25
2022-09-10T16:59:07.430Z,3.40
2022-09-10T17:01:35.568Z,3.30
2022-09-10T17:04:04.697Z,3.35
2022-09-10T17:06:32.858Z,2.35
2022-09-10T17:09:02.363Z,2.75
2022-09-10T17:11:32.099Z,4.93
2022-09-10T17:14:01.514Z,3.20
2022-09-10T17:16:32.769Z,3.30
2022-09-10T17:19:02.567Z,3.05
2022-09-10T17:21:34.333Z,4.10
2022-09-10T17:24:03.263Z,4.53
2022-09-10T17:26:32.911Z,4.72
2022-09-10T17:29:03.931Z,3.55
2022-09-10T17:31:34.053Z,4.35
2022-09-10T17:34:03.678Z,5.25
2022-09-10T17:36:33.051Z,4.78
2022-09-10T17:39:01.101Z,4.43
2022-09-10T17:41:29.790Z,5.07
2022-09-10T17:44:00.368Z,4.60
2022-09-10T17:46:31.024Z,4.72
2022-09-10T17:49:00.881Z,5.65
2022-09-10T17:51:30.703Z,5.35
2022-09-10T17:53:58.861Z,4.60
2022-09-10T17:56:27.908Z,4.85
2022-09-10T17:59:01.289Z,4.97
2022-09-10T18:01:30.546Z,4.97
2022-09-10T18:03:59.879Z,6.15
2022-09-10T18:06:28.912Z,5.05
2022-09-10T18:08:58.937Z,5.32
2022-09-10T18:11:29.190Z,4.60
2022-09-10T18:13:58.623Z,5.20
2022-09-10T18:16:28.405Z,6.15
2022-09-10T18:18:58.208Z,5.72
2022-09-10T18:21:29.423Z,5.80
2022-09-10T18:24:00.113Z,7.35
2022-09-10T18:26:29.756Z,5.25
2022-09-10T18:28:59.801Z,6.57
2022-09-10T18:31:50.139Z,6.55
2022-09-10T18:34:22.991Z,5.80
2022-09-10T18:36:54.550Z,6.97
2022-09-10T18:39:23.691Z,5.53
2022-09-10T18:41:51.863Z,6.65
2022-09-10T18:44:22.033Z,5.22
2022-09-10T18:46:50.977Z,5.75
2022-09-10T18:49:21.585Z,6.50
2022-09-10T18:51:49.938Z,6.10
2022-09-10T18:54:20.288Z,7.13
2022-09-10T18:56:49.262Z,5.90
2022-09-10T18:59:20.165Z,6.30
2022-09-10T19:01:49.884Z,6.45
2022-09-10T19:04:20.098Z,8.23
2022-09-10T19:06:49.132Z,6.90
2022-09-10T19:09:19.960Z,6.80
2022-09-10T19:11:49.542Z,7.72
2022-09-10T19:14:19.648Z,8.27
2022-09-10T19:16:48.947Z,7.30
2022-09-10T19:19:19.071Z,8.05
2022-09-10T19:21:48.199Z,7.72
2022-09-10T19:24:16.600Z,7.30
2022-09-10T19:26:46.578Z,6.43
2022-09-10T19:29:17.433Z,6.55
2022-09-10T19:31:46.484Z,8.35
2022-09-10T19:34:16.099Z,7.28
2022-09-10T19:36:44.664Z,6.78
2022-09-10T19:39:14.051Z,7.50
2022-09-10T19:41:43.347Z,8.10
2022-09-10T19:44:13.916Z,7.20
2022-09-10T19:46:42.404Z,7.78
2022-09-10T19:49:10.647Z,6.85
2022-09-10T19:51:40.548Z,7.93
2022-09-10T19:54:08.802Z,7.10
2022-09-10T19:56:38.754Z,7.82
2022-09-10T19:59:08.610Z,10.05
2022-09-10T20:01:39.919Z,6.35
2022-09-10T20:04:10.556Z,6.82
2022-09-10T20:06:38.879Z,7.80
2022-09-10T20:09:09.768Z,6.88
2022-09-10T20:11:37.781Z,9.13
2022-09-10T20:14:08.075Z,7.90
2022-09-10T20:16:38.725Z,10.20
2022-09-10T20:19:07.435Z,9.60
2022-09-10T20:21:36.923Z,8.65
2022-09-10T20:24:06.900Z,10.52
2022-09-10T20:26:37.982Z,7.38
2022-09-10T20:29:07.415Z,6.82
2022-09-10T20:31:40.836Z,7.82
2022-09-10T20:34:12.115Z,6.57
2022-09-10T20:36:42.022Z,7.80
2022-09-10T20:39:11.177Z,8.02
2022-09-10T20:41:39.879Z,7.93
2022-09-10T20:44:07.770Z,8.73
2022-09-10T20:46:37.856Z,8.85
2022-09-10T20:49:05.873Z,30.60
2022-09-10T20:51:36.153Z,18.40
2022-09-10T20:54:04.769Z,11.85
2022-09-10T20:56:32.891Z,8.02
2022-09-10T20:59:01.830Z,7.13
2022-09-10T21:01:31.931Z,8.43
2022-09-10T21:04:03.951Z,8.30
2022-09-10T21:06:33.705Z,8.32
2022-09-10T21:09:02.553Z,7.60
2022-09-10T21:11:32.127Z,10.70
2022-09-10T21:14:02.079Z,8.25
2022-09-10T21:16:32.864Z,11.30
2022-09-10T21:19:03.386Z,8.73
2022-09-10T21:21:34.152Z,7.40
2022-09-10T21:24:04.100Z,9.25
2022-09-10T21:26:34.211Z,8.90
2022-09-10T21:29:03.554Z,9.25
2022-09-10T21:31:32.188Z,8.40
2022-09-10T21:34:03.464Z,8.38
2022-09-10T21:36:32.493Z,9.93
2022-09-10T21:39:02.233Z,10.45
2022-09-10T21:41:32.550Z,8.70
2022-09-10T21:44:01.296Z,8.50
2022-09-10T21:46:29.486Z,9.27
2022-09-10T21:48:57.714Z,11.90
2022-09-10T21:51:27.176Z,10.07
2022-09-10T21:53:56.164Z,10.77
2022-09-10T21:56:25.886Z,9.35
2022-09-10T21:58:55.676Z,9.02
2022-09-10T22:01:25.658Z,9.20
2022-09-10T22:03:54.641Z,9.70
2022-09-10T22:06:24.752Z,9.13
2022-09-10T22:08:58.392Z,11.68
2022-09-10T22:11:30.392Z,9.40
2022-09-10T22:14:00.983Z,10.02
2022-09-10T22:16:30.939Z,9.35
2022-09-10T22:19:00.597Z,9.77
2022-09-10T22:21:29.014Z,9.60
2022-09-10T22:23:58.305Z,10.93
2022-09-10T22:26:29.080Z,10.20
2022-09-10T22:28:59.283Z,10.00
2022-09-10T22:31:29.456Z,10.18
2022-09-10T22:33:58.759Z,10.13
2022-09-10T22:36:30.792Z,9.88
2022-09-10T22:39:02.187Z,9.68
2022-09-10T22:41:31.637Z,8.90
2022-09-10T22:43:59.549Z,9.82
2022-09-10T22:46:28.281Z,8.73
2022-09-10T22:48:56.286Z,9.40
2022-09-10T22:51:25.792Z,9.73
2022-09-10T22:53:55.277Z,9.68
2022-09-10T22:56:26.311Z,10.13
2022-09-10T22:58:55.489Z,9.20
2022-09-10T23:01:25.394Z,11.35
2022-09-10T23:03:53.269Z,9.38
2022-09-10T23:06:25.495Z,9.35
2022-09-10T23:08:55.413Z,9.40
2022-09-10T23:11:26.130Z,12.30
2022-09-10T23:13:56.624Z,10.50
2022-09-10T23:16:26.422Z,10.80
2022-09-10T23:18:56.400Z,11.07
2022-09-10T23:21:25.301Z,12.00
2022-09-10T23:23:54.841Z,12.40
2022-09-10T23:26:24.912Z,15.55
2022-09-10T23:28:52.840Z,10.90
2022-09-10T23:31:22.654Z,11.55
2022-09-10T23:33:55.419Z,12.55
2022-09-10T23:36:23.934Z,11.15
2022-09-10T23:38:51.906Z,12.68
2022-09-10T23:41:20.346Z,12.70
2022-09-10T23:43:49.722Z,13.30
2022-09-10T23:46:17.559Z,10.98
2022-09-10T23:48:45.873Z,13.95
2022-09-10T23:51:15.479Z,10.45
2022-09-10T23:53:45.043Z,12.15
2022-09-10T23:56:12.857Z,11.93
2022-09-10T23:58:40.846Z,11.77
